Terminal Aerodrome Forecast
Issued by NWS

Home | Current Version | Previous Version | Text Only | Print | Product List | Glossary On
Versions: 1 2 3 4 5 6 7 8 9 10 11 12 13 14 15
000
FTAK31 PAJN 041734
TAFAWG
TAF
PAWG 041734Z 0418/0518 VRB04KT P6SM VCSH OVC050
     FM050000 29007KT P6SM VCSH BKN070
     FM050300 VRB05KT P6SM BKN070
     FM050700 12004KT P6SM BKN070
     FM051300 12007KT P6SM SCT025 BKN050
      AMD LTD TO CLD VIS AND WIND 0506/0515=

USA.gov is the U.S. government's official web portal to all federal, state and local government web resources and services.